Aeroporto :
LOGIN :

Iscrizione | Disclaimer

   EN    FR    IT 

 










Sommario :    VFR   VFR Marginale   IFR   IFR Intensivo   IFR Molto Intensivo
Visibilità : 
Base nubi : 
>= 8 km
>= 3000ft
5 / 8 km
1000 / 3000 ft
1500m / 5 km
500 / 1000 ft
800 / 1500m
200 / 500 ft
< 800m
< 200 ft
Simboli :   Temporali  Nebbia  Neve Forte  Precipitazioni Forti  Vento > 20 kt
SIGMETs :   Varie  Temporali  Ghiacco  Turbolenza  Onda orograficha  Ceneri Vulcaniche






- Altitudine del aeroporto : 876 ft
- Codice IATA : MBX


LJMB - Maribor

ULTIMO METAR :
  • 161200Z 18009KT 9999 FEW041 BKN077 00/M04 Q1021 R32/19//95

METARs OBSOLETI :
  • 161130Z 18008KT 160V220 9999 FEW032 BKN080 M00/M04 Q1021 R32/19//95
  • 161100Z 18008KT 9999 BKN050 M00/M04 Q1021 R99/490595
  • 161030Z 19007KT 9999 BKN050 M01/M04 Q1022 R99/490595
  • 161000Z 20005KT 9999 FEW016 BKN045 M01/M04 Q1022 R99/490595
  • 160930Z 19005KT 9999 -SN SCT027 BKN050 M02/M04 Q1022 R99/490595

TAF TAF LJMB
Valido dal 16 a 12 ore il 17 a 12 ore UTC


161100Z 1612/1712 19004KT 9999 BKN050
PROB30
TEMPO 1612/1621 -SN



MetMap, La meteo Aeronautica in un colpo d'occhio ! - Copyright ORBIFLY Dicembre 2007 - Disclaimer

ORBIFLY MET'MAP TEAM :

Programmazione e sviluppo : Alexandra Zaïnal
Concezione : Baudouin d'Aumeries
Aiuto per la programmazione : Marc-Olivier Méhu
Supporto tecnico e logistico : Manuel Goepfert
Aiuto per la traduzione : Arnaldo La Scala

Contatto : metmap@orbifly.com




FONTI E CREDITI :

   NOAA